T67 weather

Hicks Air Field
Fort Worth, Texas, United States

Public forecast

Using degrees Fahrenheit for public forecast. Weather courtesy of forecast.io.

METAR (pilot weather report)

Closest report is Fort Worth Alliance Airport, 5.8 nm (10.7 km) NE. Retrieved 2019/09/22 12:53 UTC (12 minutes ago):

KAFW 221253Z 17014KT 10SM FEW025 BKN250 25/21 A3000 RMK AO2 SLP142 T02500211

TAF (pilot weather forecast)

Closest forecast is Fort Worth Alliance Airport, 5.8 nm (10.7 km) NE. Retrieved 2019/09/22 12:39 UTC (26 minutes ago):

TAF KAFW 221137Z 2212/2312 18010KT P6SM SCT020 FM230300 18007KT P6SM VCSH BKN050 FM230600 18007KT P6SM BKN100